Time;durP1;ratioP1;P1;durP2;ratioP2;P2;SDS_P1;SDS_P2;PMS_P1;PMS_P2;Temp;Humidity;BMP_temperature;BMP_pressure;BME280_temperature;BME280_humidity;BME280_pressure;Samples;Min_cycle;Max_cycle;Signal;HPM_P1;HPM_P2
2022/08/31 00:04:55;;;;;;;11.98;4.57;;;;;;;17.37;87.00;101914.28;5040472;28;20075;-70
2022/08/31 00:07:20;;;;;;;14.38;4.53;;;;;;;17.33;87.64;101911.63;5046325;28;20021;-70
2022/08/31 00:09:45;;;;;;;13.35;4.80;;;;;;;17.26;88.75;101910.81;5042676;28;20083;-70
2022/08/31 00:12:11;;;;;;;14.07;4.68;;;;;;;17.26;89.11;101897.44;5045684;28;20025;-70
2022/08/31 00:14:36;;;;;;;11.50;4.40;;;;;;;17.19;90.22;101901.03;5041677;28;20064;-69
2022/08/31 00:17:02;;;;;;;14.85;4.80;;;;;;;17.18;90.60;101901.94;5044153;28;20461;-70
2022/08/31 00:19:27;;;;;;;13.82;4.60;;;;;;;17.17;91.01;101903.72;5044353;28;20456;-70
2022/08/31 00:21:52;;;;;;;14.48;4.72;;;;;;;17.10;92.46;101909.13;5043008;28;20017;-70
2022/08/31 00:24:18;;;;;;;11.07;4.40;;;;;;;17.10;93.11;101909.13;5046068;28;20025;-70
2022/08/31 00:26:43;;;;;;;14.02;4.60;;;;;;;17.07;93.11;101905.56;5042902;28;20017;-71
2022/08/31 00:29:09;;;;;;;13.23;4.57;;;;;;;17.08;93.51;101895.75;5044934;28;20021;-70
2022/08/31 00:31:35;;;;;;;13.45;4.45;;;;;;;17.07;93.67;101902.00;5043753;28;20033;-70
2022/08/31 00:34:00;;;;;;;12.93;4.43;;;;;;;17.04;94.21;101904.72;5043602;28;20444;-62
2022/08/31 00:36:26;;;;;;;13.43;4.57;;;;;;;17.02;94.89;101902.03;5044732;28;20120;-62
2022/08/31 00:38:52;;;;;;;13.45;4.63;;;;;;;17.01;95.12;101900.25;5042457;28;20029;-63
2022/08/31 00:41:22;;;;;;;14.98;4.75;;;;;;;16.96;96.57;101902.06;5045703;28;20516;-62
2022/08/31 00:44:01;;;;;;;13.10;4.70;;;;;;;16.98;95.61;101907.38;5038270;28;20029;-60
2022/08/31 00:46:30;;;;;;;13.90;4.70;;;;;;;17.04;96.13;101904.72;5040167;28;20064;-62
2022/08/31 00:48:55;;;;;;;15.23;4.68;;;;;;;16.99;96.08;101896.69;5044653;28;20025;-60
2022/08/31 00:51:21;;;;;;;12.75;4.60;;;;;;;16.94;96.53;101903.88;5042254;28;20534;-61
2022/08/31 00:53:47;;;;;;;16.20;4.63;;;;;;;16.85;98.72;101899.41;5045174;28;20083;-61
2022/08/31 00:56:13;;;;;;;15.23;4.72;;;;;;;16.89;98.47;101903.91;5042479;28;20404;-61
2022/08/31 00:58:38;;;;;;;12.90;4.47;;;;;;;16.83;98.66;101900.31;5044417;28;20100;-61
2022/08/31 01:01:07;;;;;;;15.20;4.38;;;;;;;16.84;98.79;101905.66;5043165;28;20109;-62
2022/08/31 01:03:33;;;;;;;13.00;4.53;;;;;;;16.85;98.71;101895.88;5043645;28;20021;-64
2022/08/31 01:05:58;;;;;;;13.50;4.40;;;;;;;16.86;98.18;101905.63;5044067;28;20028;-65
2022/08/31 01:08:23;;;;;;;13.65;4.60;;;;;;;16.84;98.70;101902.97;5042031;28;20040;-67
2022/08/31 01:10:49;;;;;;;13.27;4.32;;;;;;;16.84;98.70;101905.66;5045148;28;20163;-66
2022/08/31 01:13:16;;;;;;;14.15;4.65;;;;;;;16.79;99.09;101903.91;5041414;28;20029;-66
2022/08/31 01:15:48;;;;;;;14.07;4.43;;;;;;;16.75;99.38;101903.03;5044489;28;20039;-64
2022/08/31 01:18:14;;;;;;;;;;;;;;;16.77;94.60;101903.03;5041919;28;20025;-69
2022/08/31 01:20:54;;;;;;;11.98;4.18;;;;;;;16.67;98.99;101899.50;5044350;28;19959;-69
2022/08/31 01:23:24;;;;;;;12.02;4.25;;;;;;;16.53;100.00;101904.91;5038098;28;20029;-68
2022/08/31 01:25:50;;;;;;;11.95;4.20;;;;;;;16.52;100.00;101901.34;5037873;28;20030;-69
2022/08/31 01:28:16;;;;;;;10.10;4.20;;;;;;;16.53;100.00;101894.22;5037250;28;20108;-69
2022/08/31 01:30:41;;;;;;;12.05;4.45;;;;;;;16.49;100.00;101889.78;5043746;28;20060;-69
2022/08/31 01:33:08;;;;;;;12.88;4.30;;;;;;;16.46;100.00;101890.69;5042540;28;20110;-70
2022/08/31 01:35:34;;;;;;;13.30;4.40;;;;;;;16.39;100.00;101896.94;5042910;28;20032;-69
2022/08/31 01:38:00;;;;;;;12.52;4.10;;;;;;;16.41;100.00;101896.94;5043277;28;20039;-71
2022/08/31 01:40:42;;;;;;;12.63;4.40;;;;;;;16.35;100.00;101901.41;5041777;28;20021;-69
2022/08/31 01:43:08;;;;;;;13.73;4.50;;;;;;;16.33;100.00;101897.84;5042075;28;20052;-70
2022/08/31 01:45:33;;;;;;;12.75;4.55;;;;;;;16.33;100.00;101888.97;5042757;28;20025;-69
2022/08/31 01:47:58;;;;;;;14.18;4.45;;;;;;;16.26;100.00;101898.75;5043216;28;20033;-70
2022/08/31 01:50:24;;;;;;;14.27;4.40;;;;;;;16.18;100.00;101889.91;5041274;28;20033;-70
2022/08/31 01:52:49;;;;;;;11.07;4.20;;;;;;;16.14;100.00;101896.13;5044381;28;20220;-70
2022/08/31 01:55:14;;;;;;;14.18;4.15;;;;;;;16.13;100.00;101897.00;5040848;28;20171;-70
2022/08/31 01:57:40;;;;;;;12.38;4.38;;;;;;;16.09;100.00;101895.22;5043364;28;20029;-70
2022/08/31 02:00:07;;;;;;;14.00;4.50;;;;;;;15.97;100.00;101902.34;5042140;28;20114;-70
2022/08/31 02:02:33;;;;;;;12.77;4.18;;;;;;;16.03;100.00;101899.69;5042519;28;20108;-61
2022/08/31 02:04:59;;;;;;;12.55;4.35;;;;;;;15.98;100.00;101909.47;5043278;28;20063;-61
2022/08/31 02:07:24;;;;;;;13.77;4.55;;;;;;;15.99;100.00;101900.59;5041312;28;20034;-63
2022/08/31 02:09:50;;;;;;;12.13;4.47;;;;;;;15.93;100.00;101900.59;5042496;28;20029;-62
2022/08/31 02:12:15;;;;;;;13.65;4.60;;;;;;;15.89;100.00;101905.91;5040893;28;20025;-60
2022/08/31 02:14:40;;;;;;;12.60;4.50;;;;;;;15.81;100.00;101906.84;5043074;28;20160;-61
2022/08/31 02:17:05;;;;;;;13.90;4.85;;;;;;;15.83;100.00;101905.06;5042234;28;20447;-63
2022/08/31 02:19:31;;;;;;;13.85;4.60;;;;;;;15.85;100.00;101907.72;5042024;28;20549;-62
2022/08/31 02:21:56;;;;;;;13.23;4.93;;;;;;;15.84;100.00;101908.59;5043313;28;20031;-62
2022/08/31 02:24:21;;;;;;;15.57;4.93;;;;;;;15.78;100.00;101900.56;5040655;28;20022;-62
2022/08/31 02:26:47;;;;;;;12.25;4.68;;;;;;;15.79;100.00;101913.06;5044165;28;20055;-61
2022/08/31 02:29:12;;;;;;;12.80;4.65;;;;;;;15.77;100.00;101912.13;5041038;28;20105;-62
2022/08/31 02:31:37;;;;;;;14.85;4.82;;;;;;;15.75;100.00;101916.56;5042515;28;20017;-60
2022/08/31 02:34:03;;;;;;;13.68;4.57;;;;;;;15.70;100.00;101905.91;5042557;28;20029;-61
2022/08/31 02:36:30;;;;;;;13.52;4.90;;;;;;;15.72;100.00;101905.91;5041578;28;20077;-63
2022/08/31 02:38:55;;;;;;;13.52;4.72;;;;;;;15.66;100.00;101913.00;5043144;28;20536;-61
2022/08/31 02:41:21;;;;;;;13.77;4.70;;;;;;;15.67;100.00;101913.91;5040684;28;20053;-62
2022/08/31 02:43:46;;;;;;;14.85;4.97;;;;;;;15.57;100.00;101922.78;5046020;28;20029;-61
2022/08/31 02:46:11;;;;;;;14.55;4.80;;;;;;;15.53;100.00;101916.56;5044970;28;20033;-62
2022/08/31 02:48:37;;;;;;;14.05;5.10;;;;;;;15.49;100.00;101914.78;5046494;28;20033;-63
2022/08/31 02:51:08;;;;;;;12.80;4.75;;;;;;;15.48;100.00;101921.00;5046049;28;20398;-63
2022/08/31 02:53:34;;;;;;;13.37;5.03;;;;;;;15.47;100.00;101913.91;5045612;28;20381;-67
2022/08/31 02:55:59;;;;;;;13.82;4.97;;;;;;;15.40;100.00;101909.44;5046605;28;20021;-66
2022/08/31 02:58:24;;;;;;;14.68;4.80;;;;;;;15.36;100.00;101899.66;5044359;28;20431;-68
2022/08/31 03:00:50;;;;;;;15.48;4.75;;;;;;;15.37;100.00;101912.13;5047905;28;20029;-67
2022/08/31 03:03:16;;;;;;;14.55;4.95;;;;;;;15.29;100.00;101902.34;5044158;28;20481;-67
2022/08/31 03:05:41;;;;;;;12.80;4.70;;;;;;;15.28;100.00;101905.88;5046867;28;20061;-67
2022/08/31 03:08:07;;;;;;;15.25;4.90;;;;;;;15.28;100.00;101907.66;5045632;28;20472;-67
2022/08/31 03:10:33;;;;;;;15.80;4.90;;;;;;;15.26;100.00;101906.75;5045336;28;20025;-67
2022/08/31 03:12:58;;;;;;;13.70;4.93;;;;;;;15.25;100.00;101902.34;5046460;28;20071;-68
2022/08/31 03:15:25;;;;;;;15.30;5.03;;;;;;;15.21;100.00;101898.75;5043976;28;20041;-67
2022/08/31 03:17:51;;;;;;;14.20;4.78;;;;;;;15.20;100.00;101910.28;5047080;28;20080;-67
2022/08/31 03:20:17;;;;;;;13.63;4.70;;;;;;;15.17;100.00;101912.94;5043545;28;20033;-67
2022/08/31 03:22:43;;;;;;;15.07;4.88;;;;;;;15.08;100.00;101907.59;5046942;28;20427;-67
2022/08/31 03:25:09;;;;;;;12.07;4.60;;;;;;;15.09;100.00;101915.59;5044641;28;20052;-66
2022/08/31 03:27:36;;;;;;;13.85;5.00;;;;;;;15.02;100.00;101905.81;5045001;28;20061;-68
2022/08/31 03:30:04;;;;;;;15.38;4.95;;;;;;;14.97;100.00;101907.59;5045673;28;20028;-63
2022/08/31 03:32:30;;;;;;;12.63;5.05;;;;;;;14.94;100.00;101915.53;5044484;28;20033;-65
2022/08/31 03:34:58;;;;;;;14.18;5.05;;;;;;;14.91;100.00;101910.22;5046029;28;20029;-70
2022/08/31 03:37:24;;;;;;;15.23;5.00;;;;;;;14.89;100.00;101912.88;5043929;28;20033;-69
2022/08/31 03:39:49;;;;;;;15.63;5.30;;;;;;;14.89;100.00;101912.00;5046877;28;20055;-70
2022/08/31 03:42:15;;;;;;;13.25;4.68;;;;;;;14.88;100.00;101912.88;5043431;28;20025;-70
2022/08/31 03:44:41;;;;;;;12.98;4.88;;;;;;;14.86;100.00;101922.63;5045852;28;20191;-69
2022/08/31 03:47:06;;;;;;;13.90;4.80;;;;;;;14.84;100.00;101919.97;5044463;28;20029;-69
2022/08/31 03:49:32;;;;;;;13.88;4.90;;;;;;;14.77;100.00;101923.50;5043160;28;20031;-70
2022/08/31 03:51:57;;;;;;;14.25;4.88;;;;;;;14.72;100.00;101917.25;5045638;28;20029;-70
2022/08/31 03:54:23;;;;;;;14.00;4.80;;;;;;;14.67;100.00;101919.00;5042053;28;20030;-70
2022/08/31 03:56:48;;;;;;;15.85;5.10;;;;;;;14.66;100.00;101920.75;5046363;28;20120;-68
2022/08/31 03:59:14;;;;;;;13.98;4.90;;;;;;;14.62;100.00;101919.88;5043461;28;20036;-70
2022/08/31 04:01:39;;;;;;;13.75;4.68;;;;;;;14.63;100.00;101919.00;5045170;28;20108;-70
2022/08/31 04:04:04;;;;;;;13.23;4.60;;;;;;;14.63;100.00;101913.69;5044693;28;20040;-69
2022/08/31 04:06:30;;;;;;;15.82;4.85;;;;;;;14.64;100.00;101922.53;5043792;28;20095;-69
2022/08/31 04:08:56;;;;;;;13.68;4.68;;;;;;;14.62;100.00;101916.31;5045878;28;20033;-70
2022/08/31 04:11:21;;;;;;;11.27;4.60;;;;;;;14.60;100.00;101921.59;5042918;28;20388;-69
2022/08/31 04:13:47;;;;;;;12.55;4.45;;;;;;;14.65;100.00;101921.66;5045910;28;20025;-70
2022/08/31 04:16:16;;;;;;;12.10;4.20;;;;;;;14.67;100.00;101922.56;5043102;28;20026;-69
2022/08/31 04:18:43;;;;;;;12.82;4.30;;;;;;;14.71;100.00;101919.03;5045184;28;20083;-67
2022/08/31 04:21:16;;;;;;;15.80;4.47;;;;;;;14.70;100.00;101913.69;5043638;28;20040;-67
2022/08/31 04:23:42;;;;;;;12.88;4.22;;;;;;;14.61;100.00;101920.75;5045179;28;20037;-67
2022/08/31 04:26:20;;;;;;;12.65;4.57;;;;;;;14.59;100.00;101916.25;5043893;28;20029;-61
2022/08/31 04:28:46;;;;;;;15.15;5.40;;;;;;;14.61;100.00;101922.50;5045532;28;20052;-68
2022/08/31 04:31:11;;;;;;;12.48;4.45;;;;;;;14.56;100.00;101919.81;5043055;28;20083;-66
2022/08/31 04:33:37;;;;;;;11.73;4.20;;;;;;;14.51;100.00;101932.19;5043887;28;20025;-68
2022/08/31 04:36:09;;;;;;;14.27;4.50;;;;;;;14.47;100.00;101931.31;5044240;28;20055;-67
2022/08/31 04:38:34;;;;;;;16.40;4.65;;;;;;;14.44;100.00;101933.03;5043678;28;20122;-67
2022/08/31 04:41:05;;;;;;;13.15;4.60;;;;;;;14.39;100.00;101926.81;5044446;28;20472;-68
2022/08/31 04:43:31;;;;;;;11.32;4.30;;;;;;;14.35;100.00;101923.25;5043311;28;20071;-65
2022/08/31 04:45:56;;;;;;;13.00;4.50;;;;;;;14.27;100.00;101927.63;5044647;28;20021;-67
2022/08/31 04:48:21;;;;;;;12.85;4.50;;;;;;;14.18;100.00;101920.47;5042258;28;20100;-67
2022/08/31 04:50:49;;;;;;;12.93;4.40;;;;;;;14.18;100.00;101931.09;5045375;28;20052;-67
2022/08/31 04:53:15;;;;;;;15.35;4.43;;;;;;;14.12;100.00;101933.72;5041965;28;20050;-67
2022/08/31 04:55:41;;;;;;;13.15;4.57;;;;;;;14.07;100.00;101933.69;5044532;28;20040;-68
2022/08/31 04:58:07;;;;;;;14.98;4.55;;;;;;;14.06;100.00;101941.66;5043365;28;20506;-67
2022/08/31 05:00:34;;;;;;;13.23;4.22;;;;;;;14.02;100.00;101937.19;5043010;28;20104;-66
2022/08/31 05:02:59;;;;;;;11.95;4.43;;;;;;;14.02;100.00;101938.06;5044023;28;20024;-67
2022/08/31 05:05:25;;;;;;;11.55;4.20;;;;;;;13.99;100.00;101939.84;5041784;28;20025;-67
2022/08/31 05:07:50;;;;;;;12.90;4.30;;;;;;;13.95;100.00;101934.50;5045221;28;20427;-68
2022/08/31 05:10:15;;;;;;;15.93;4.30;;;;;;;13.92;100.00;101937.13;5041681;28;20044;-62
2022/08/31 05:12:43;;;;;;;17.10;5.70;;;;;;;13.93;100.00;101933.59;5044411;28;20397;-62
2022/08/31 05:15:09;;;;;;;12.95;4.50;;;;;;;13.92;100.00;101937.13;5042618;28;20496;-61
2022/08/31 05:17:34;;;;;;;14.85;4.40;;;;;;;13.92;100.00;101941.53;5042985;28;20412;-61
2022/08/31 05:20:00;;;;;;;10.65;4.20;;;;;;;13.90;100.00;101943.31;5042805;28;20086;-62
2022/08/31 05:22:27;;;;;;;12.68;4.30;;;;;;;13.93;100.00;101941.56;5041731;28;20380;-61
2022/08/31 05:24:52;;;;;;;12.48;4.20;;;;;;;13.95;100.00;101942.47;5045024;28;20095;-61
2022/08/31 05:27:18;;;;;;;12.70;3.95;;;;;;;13.95;100.00;101953.09;5041388;28;20017;-60
2022/08/31 05:29:43;;;;;;;11.00;3.83;;;;;;;13.91;100.00;101945.09;5043860;28;20078;-60
2022/08/31 05:32:08;;;;;;;15.10;4.10;;;;;;;13.95;100.00;101954.88;5042717;28;20024;-60
2022/08/31 05:34:34;;;;;;;12.88;4.00;;;;;;;13.91;100.00;101953.97;5042816;28;20372;-61
2022/08/31 05:36:59;;;;;;;14.10;4.00;;;;;;;13.99;100.00;101947.81;5043871;28;20049;-61
2022/08/31 05:39:25;;;;;;;14.50;4.25;;;;;;;14.04;100.00;101951.41;5041590;28;20018;-60
2022/08/31 05:41:50;;;;;;;9.55;3.60;;;;;;;14.05;100.00;101954.09;5044524;28;20032;-61
2022/08/31 05:44:16;;;;;;;15.85;3.92;;;;;;;14.13;100.00;101957.66;5041492;28;20022;-61
2022/08/31 05:46:42;;;;;;;11.02;3.80;;;;;;;14.11;100.00;101953.22;5043641;28;20384;-62
2022/08/31 05:49:08;;;;;;;10.75;3.53;;;;;;;14.17;100.00;101955.03;5042181;28;20024;-67
2022/08/31 05:51:34;;;;;;;12.25;3.85;;;;;;;14.18;100.00;101956.81;5042465;28;20049;-66
2022/08/31 05:54:00;;;;;;;9.82;3.50;;;;;;;14.23;100.00;101958.63;5043448;28;20492;-67
2022/08/31 05:56:26;;;;;;;14.57;3.97;;;;;;;14.25;100.00;101959.50;5040974;28;20029;-78
2022/08/31 05:58:52;;;;;;;11.93;3.40;;;;;;;14.27;100.00;101964.84;5037495;28;20028;-85
2022/08/31 06:01:24;;;;;;;10.90;3.40;;;;;;;14.32;100.00;101967.56;5031589;28;20124;-79
2022/08/31 06:03:49;;;;;;;18.05;3.85;;;;;;;14.29;100.00;101961.31;5036989;28;20025;-77
2022/08/31 06:06:16;;;;;;;9.32;3.58;;;;;;;14.32;100.00;101960.47;5035307;28;20477;-78
2022/08/31 06:08:42;;;;;;;14.25;3.60;;;;;;;14.38;100.00;101962.28;5032691;28;20128;-81
2022/08/31 06:11:13;;;;;;;14.00;3.45;;;;;;;14.39;100.00;101972.91;5032235;28;20377;-74
2022/08/31 06:13:39;;;;;;;13.65;3.50;;;;;;;14.50;100.00;101972.97;5033743;28;20041;-78
2022/08/31 06:16:05;;;;;;;13.30;3.50;;;;;;;14.60;100.00;101972.16;5034816;28;20025;-83
2022/08/31 06:18:31;;;;;;;10.23;3.33;;;;;;;14.64;99.10;101970.44;5037160;28;20029;-71
2022/08/31 06:21:07;;;;;;;10.88;3.40;;;;;;;14.71;98.04;101974.00;5036247;28;20026;-75
2022/08/31 06:23:34;;;;;;;12.40;3.63;;;;;;;14.83;97.25;101976.75;5042160;28;20486;-80
2022/08/31 06:26:05;;;;;;;9.68;3.40;;;;;;;14.90;96.69;101983.00;5039583;28;20029;-77
2022/08/31 06:28:31;;;;;;;11.38;3.50;;;;;;;15.08;95.96;101979.50;5035540;28;20469;-76
2022/08/31 06:30:58;;;;;;;12.38;3.50;;;;;;;15.20;93.88;101984.84;5042308;28;20354;-81
2022/08/31 06:33:24;;;;;;;11.18;3.40;;;;;;;15.33;91.94;101988.44;5035099;28;20464;-71
2022/08/31 06:35:50;;;;;;;13.75;3.53;;;;;;;15.48;90.99;101992.97;5039735;28;20021;-75
2022/08/31 06:38:15;;;;;;;10.57;3.40;;;;;;;15.66;90.32;102000.09;5035126;28;20452;-79
2022/08/31 06:40:40;;;;;;;11.43;3.50;;;;;;;15.75;88.40;101997.41;5038743;28;20036;-80
2022/08/31 06:43:06;;;;;;;13.60;3.60;;;;;;;15.80;87.38;102006.34;5035785;28;20033;-70
2022/08/31 06:45:32;;;;;;;12.27;3.63;;;;;;;15.79;86.47;101993.91;5039498;28;20030;-77
2022/08/31 06:47:59;;;;;;;11.20;3.47;;;;;;;15.72;85.24;101999.22;5039463;28;20461;-59
2022/08/31 06:50:25;;;;;;;11.38;3.35;;;;;;;15.64;85.70;101994.75;5035380;28;20021;-59
2022/08/31 06:52:50;;;;;;;10.27;3.17;;;;;;;15.60;85.80;102005.41;5037098;28;20053;-59
2022/08/31 06:55:16;;;;;;;10.88;3.30;;;;;;;15.56;85.50;102001.84;5034787;28;20033;-60
2022/08/31 06:57:41;;;;;;;8.48;3.20;;;;;;;15.54;85.27;102008.94;5034255;28;20060;-59
2022/08/31 07:00:07;;;;;;;13.38;3.25;;;;;;;15.58;86.17;102009.81;5040134;28;20116;-59
2022/08/31 07:02:33;;;;;;;15.55;3.60;;;;;;;15.59;84.29;102007.16;5036606;28;20018;-60
2022/08/31 07:04:58;;;;;;;11.23;3.50;;;;;;;15.65;84.08;102004.53;5035214;28;20024;-60
2022/08/31 07:07:23;;;;;;;11.07;3.20;;;;;;;15.75;83.98;102007.22;5034728;28;20026;-60
2022/08/31 07:09:49;;;;;;;12.75;3.30;;;;;;;15.78;82.40;102007.19;5036815;28;20035;-65
2022/08/31 07:12:14;;;;;;;11.38;3.10;;;;;;;15.87;83.06;102015.22;5036124;28;20025;-62
2022/08/31 07:14:40;;;;;;;11.48;3.20;;;;;;;15.91;82.16;102002.81;5037431;28;20036;-60
2022/08/31 07:17:07;;;;;;;10.27;3.20;;;;;;;15.97;80.88;102005.47;5034501;28;20026;-61
2022/08/31 07:19:32;;;;;;;9.45;3.20;;;;;;;15.95;80.85;102007.25;5034562;28;20017;-60
2022/08/31 07:22:00;;;;;;;10.15;3.22;;;;;;;16.02;79.84;102014.38;5034516;28;20018;-60
2022/08/31 07:24:29;;;;;;;10.80;3.20;;;;;;;16.06;80.02;102008.13;5037108;28;20033;-60
2022/08/31 07:27:03;;;;;;;12.25;3.20;;;;;;;16.11;78.98;102011.69;5034698;28;20021;-60
2022/08/31 07:29:36;;;;;;;11.20;3.22;;;;;;;16.20;78.88;102010.81;5038440;28;20029;-59
2022/08/31 07:32:02;;;;;;;10.45;3.20;;;;;;;16.29;78.42;102004.56;5033151;28;20029;-60
2022/08/31 07:34:29;;;;;;;13.00;3.30;;;;;;;16.42;78.50;102010.78;5036969;28;20037;-61
2022/08/31 07:42:29;;;;;;;14.68;3.50;;;;;;;16.65;76.09;102000.94;5034366;28;20061;-60
2022/08/31 07:44:57;;;;;;;13.85;3.30;;;;;;;16.70;75.49;101999.16;5035508;28;20025;-60
2022/08/31 07:47:25;;;;;;;12.43;3.50;;;;;;;16.73;76.81;102001.81;5037798;28;20461;-60
2022/08/31 07:49:53;;;;;;;14.45;3.55;;;;;;;16.78;75.63;101996.47;5037470;28;20500;-61
2022/08/31 07:52:22;;;;;;;8.95;3.38;;;;;;;16.83;75.37;102001.78;5034747;28;20038;-60
2022/08/31 07:54:53;;;;;;;12.43;3.30;;;;;;;16.90;75.45;102003.56;5035977;28;20389;-66
2022/08/31 07:57:20;;;;;;;12.18;3.63;;;;;;;16.96;74.54;102000.88;5030567;28;21125;-60
2022/08/31 07:59:53;;;;;;;12.27;3.75;;;;;;;17.07;74.45;102011.53;5033703;28;20144;-60
2022/08/31 08:02:20;;;;;;;;;;;;;;;17.31;74.74;102015.84;5033955;28;20041;-60
2022/08/31 08:04:45;;;;;;;14.60;3.40;;;;;;;17.63;72.52;102011.22;5036772;28;20363;-60
2022/08/31 08:07:11;;;;;;;13.13;3.60;;;;;;;17.84;71.37;102021.78;5033268;28;20037;-61
2022/08/31 08:09:37;;;;;;;13.07;3.40;;;;;;;17.96;70.16;102020.84;5033005;28;20111;-61
2022/08/31 08:12:06;;;;;;;12.70;3.60;;;;;;;18.13;69.77;102015.34;5034431;28;20531;-69
2022/08/31 08:14:34;;;;;;;14.80;3.70;;;;;;;18.32;68.71;102013.41;5035300;28;20037;-68
2022/08/31 08:17:01;;;;;;;11.85;3.50;;;;;;;18.64;67.70;102023.78;5033752;28;20025;-69
2022/08/31 08:19:26;;;;;;;12.15;3.47;;;;;;;18.68;66.18;102031.78;5035205;28;20032;-71
2022/08/31 08:21:52;;;;;;;14.63;3.50;;;;;;;18.67;67.08;102025.53;5033583;28;20116;-70
2022/08/31 08:24:17;;;;;;;12.18;3.53;;;;;;;18.69;66.52;102025.53;5033363;28;20464;-64
2022/08/31 08:26:45;;;;;;;13.50;3.40;;;;;;;18.90;66.42;102027.09;5036184;28;20037;-70
2022/08/31 08:29:10;;;;;;;12.25;3.67;;;;;;;19.24;64.24;102032.94;5033271;28;20427;-69
2022/08/31 08:31:36;;;;;;;13.43;3.50;;;;;;;19.62;62.71;102039.53;5038173;28;20032;-70
2022/08/31 08:34:01;;;;;;;11.48;3.90;;;;;;;19.81;61.96;102029.47;5033852;28;20083;-68
2022/08/31 08:36:30;;;;;;;14.57;3.70;;;;;;;19.85;61.15;102041.03;5032904;28;20033;-69
2022/08/31 08:38:56;;;;;;;12.77;3.92;;;;;;;19.79;60.19;102035.75;5032325;28;20100;-70
2022/08/31 08:41:26;;;;;;;9.20;3.60;;;;;;;19.82;61.08;102035.72;5035264;28;20446;-60
2022/08/31 08:43:54;;;;;;;14.50;3.90;;;;;;;19.88;60.42;102046.34;5033204;28;20491;-61
2022/08/31 08:46:28;;;;;;;14.73;3.83;;;;;;;20.04;60.14;102052.38;5036291;28;20060;-61
2022/08/31 08:48:57;;;;;;;11.93;3.80;;;;;;;20.60;58.29;102046.03;5032531;28;20116;-60
2022/08/31 08:51:29;;;;;;;12.85;3.80;;;;;;;21.30;54.40;102035.69;5033401;28;20029;-60
2022/08/31 08:54:03;;;;;;;11.93;3.72;;;;;;;21.89;53.21;102043.34;5036380;28;20056;-60
2022/08/31 08:56:29;;;;;;;11.52;3.75;;;;;;;22.48;50.79;102038.31;5036902;28;20029;-67
2022/08/31 08:58:54;;;;;;;14.77;3.80;;;;;;;22.76;48.75;102038.44;5035411;28;20132;-62
2022/08/31 09:01:27;;;;;;;12.75;4.00;;;;;;;23.21;48.21;102048.88;5032215;28;20064;-65
2022/08/31 09:04:11;;;;;;;12.15;3.88;;;;;;;23.51;46.53;102043.47;5032077;28;20040;-61
2022/08/31 09:07:15;;;;;;;11.48;3.72;;;;;;;24.04;46.29;102039.97;5035188;28;20041;-62
2022/08/31 09:09:52;;;;;;;13.68;3.65;;;;;;;24.33;44.45;102020.09;5036172;28;20025;-60
2022/08/31 09:12:35;;;;;;;11.68;3.50;;;;;;;24.98;43.44;102023.19;5032895;28;20358;-61
2022/08/31 09:15:27;;;;;;;10.00;3.55;;;;;;;25.00;42.63;102026.72;5036381;28;20535;-61
2022/08/31 09:18:37;;;;;;;13.23;4.00;;;;;;;25.33;44.62;102022.81;5033125;28;20079;-60
2022/08/31 09:21:20;;;;;;;14.02;3.90;;;;;;;25.72;42.06;102027.56;5031554;28;20033;-70
2022/08/31 09:23:51;;;;;;;14.95;4.50;;;;;;;25.38;41.55;102023.50;5034966;28;20105;-78
2022/08/31 09:26:19;;;;;;;14.07;4.40;;;;;;;24.62;42.83;102025.44;5036147;28;20021;-78
2022/08/31 09:28:47;;;;;;;15.63;4.70;;;;;;;24.02;44.23;102020.25;5030984;28;20476;-73
2022/08/31 09:31:45;;;;;;;13.10;4.50;;;;;;;23.78;46.89;102027.31;5037056;28;20453;-73
2022/08/31 09:34:27;;;;;;;15.80;4.80;;;;;;;23.68;46.59;102027.63;4974975;28;20109;-78
2022/08/31 09:36:55;;;;;;;;;;;;;;;24.18;47.32;102021.50;4974494;28;20121;-69
2022/08/31 09:39:29;;;;;;;13.77;4.53;;;;;;;24.50;44.88;102029.44;4971388;28;19917;-69
2022/08/31 09:42:02;;;;;;;14.95;4.55;;;;;;;24.60;44.11;102020.09;4978572;28;20031;-69
2022/08/31 09:44:40;;;;;;;14.40;4.50;;;;;;;25.21;43.19;102018.72;4977270;28;20121;-69
2022/08/31 09:47:39;;;;;;;15.10;4.40;;;;;;;25.27;42.28;102020.31;4979881;28;20451;-68
2022/08/31 09:50:10;;;;;;;12.75;4.18;;;;;;;26.40;40.11;102020.22;4972734;28;20529;-69
2022/08/31 09:55:24;;;;;;;14.65;4.50;;;;;;;27.64;37.21;102031.72;4974478;28;20080;-65
2022/08/31 09:58:01;;;;;;;16.58;4.80;;;;;;;27.46;37.76;102029.88;4974311;28;20101;-63
2022/08/31 10:00:38;;;;;;;14.13;4.80;;;;;;;26.92;38.48;102026.97;4976564;28;20074;-66
2022/08/31 10:03:27;;;;;;;16.05;5.30;;;;;;;26.27;40.18;102027.09;4975745;28;20046;-64
2022/08/31 10:05:54;;;;;;;14.95;4.90;;;;;;;25.64;40.97;102017.03;4980450;28;20031;-66
2022/08/31 10:08:45;;;;;;;14.27;4.85;;;;;;;25.96;41.63;102022.94;4981343;28;20374;-65
2022/08/31 10:11:18;;;;;;;15.18;4.68;;;;;;;26.76;39.58;102015.94;5038143;28;20041;-64
2022/08/31 10:13:55;;;;;;;16.02;4.93;;;;;;;27.60;37.92;102026.50;5042974;28;20021;-64
2022/08/31 10:16:34;;;;;;;14.57;4.97;;;;;;;28.24;37.26;102010.66;5042502;28;20198;-63
2022/08/31 10:19:12;;;;;;;14.73;4.90;;;;;;;28.59;35.85;102016.09;5040095;28;20017;-64
2022/08/31 10:21:50;;;;;;;16.35;5.10;;;;;;;29.67;35.36;102021.03;5037657;28;20104;-64
2022/08/31 10:24:42;;;;;;;15.32;4.72;;;;;;;29.41;34.82;102015.22;5039576;28;20033;-67
2022/08/31 10:27:15;;;;;;;16.30;4.95;;;;;;;28.29;36.68;102004.00;5037477;28;20025;-62
2022/08/31 10:29:47;;;;;;;16.27;5.07;;;;;;;28.82;35.84;102009.41;5043683;28;20103;-63
2022/08/31 10:32:31;;;;;;;16.35;5.10;;;;;;;28.59;35.47;102010.63;5041240;28;20028;-65
2022/08/31 10:35:20;;;;;;;16.40;5.35;;;;;;;28.85;34.54;102006.53;5041238;28;20033;-64
2022/08/31 10:37:49;;;;;;;15.45;5.13;;;;;;;29.92;33.60;102008.72;5039089;28;20030;-65
2022/08/31 10:40:23;;;;;;;14.77;4.88;;;;;;;30.16;32.72;102001.81;5042931;28;20032;-62
2022/08/31 10:43:07;;;;;;;15.25;5.00;;;;;;;30.39;33.26;102007.69;5042043;28;20029;-66
2022/08/31 10:45:36;;;;;;;15.70;5.20;;;;;;;30.96;31.40;102004.16;5040824;28;20068;-66
2022/08/31 10:48:03;;;;;;;14.77;4.57;;;;;;;31.83;30.44;102010.34;5043809;28;20119;-64
2022/08/31 10:50:38;;;;;;;17.55;4.75;;;;;;;32.48;29.53;101998.59;5040818;28;20527;-65
2022/08/31 10:53:32;;;;;;;12.35;4.38;;;;;;;31.57;31.37;102002.06;5036234;28;20049;-65
2022/08/31 10:56:20;;;;;;;14.75;4.95;;;;;;;30.53;33.02;102004.16;5042404;28;20029;-64
2022/08/31 10:59:09;;;;;;;14.55;4.70;;;;;;;31.27;31.52;102008.53;5039347;28;20028;-63
2022/08/31 11:01:57;;;;;;;15.95;4.90;;;;;;;32.41;30.49;101996.41;5036349;28;20021;-66
2022/08/31 11:04:36;;;;;;;18.00;4.90;;;;;;;33.22;28.85;101997.03;5020682;28;20136;-67
2022/08/31 11:07:11;;;;;;;16.40;4.95;;;;;;;33.28;28.26;102000.19;5022160;28;20037;-66
2022/08/31 11:10:15;;;;;;;15.63;5.00;;;;;;;33.86;27.84;102002.31;5018198;28;20053;-67
2022/08/31 11:12:50;;;;;;;15.73;4.80;;;;;;;33.62;27.63;102000.38;4963499;28;20074;-65
2022/08/31 11:15:37;;;;;;;13.90;4.50;;;;;;;34.01;27.22;101990.13;4965311;28;20438;-66
2022/08/31 11:18:41;;;;;;;18.67;4.70;;;;;;;34.84;27.58;101996.47;4966602;28;20042;-67
2022/08/31 11:21:40;;;;;;;18.80;4.80;;;;;;;34.73;26.73;102000.06;4963510;28;20395;-66
2022/08/31 11:24:14;;;;;;;16.60;4.80;;;;;;;33.76;26.78;101995.78;4960683;28;20040;-65
2022/08/31 11:27:13;;;;;;;12.77;4.60;;;;;;;33.90;27.46;101994.72;4966545;28;20094;-67
2022/08/31 11:29:50;;;;;;;12.45;4.20;;;;;;;34.69;26.96;101992.16;4966320;28;20042;-66
2022/08/31 11:32:27;;;;;;;13.70;4.75;;;;;;;35.28;25.91;102002.03;4960065;28;20031;-67
2022/08/31 11:34:55;;;;;;;15.20;4.30;;;;;;;35.37;25.64;101993.06;4963225;28;20039;-62
2022/08/31 11:37:50;;;;;;;13.48;4.20;;;;;;;35.92;25.40;101989.41;4965133;28;20121;-65